createdAt,value
2022-11-08T00:00:05.638Z,14.50
2022-11-08T00:02:32.689Z,14.68
2022-11-08T00:05:18.090Z,13.90
2022-11-08T00:08:03.297Z,13.10
2022-11-08T00:10:48.570Z,12.77
2022-11-08T00:13:34.198Z,13.05
2022-11-08T00:16:01.420Z,13.35
2022-11-08T00:18:28.018Z,13.15
2022-11-08T00:20:54.619Z,12.10
2022-11-08T00:23:21.273Z,13.10
2022-11-08T00:25:54.492Z,12.07
2022-11-08T00:28:21.167Z,15.05
2022-11-08T00:30:47.749Z,12.98
2022-11-08T00:33:14.424Z,13.00
2022-11-08T00:35:41.025Z,11.52
2022-11-08T00:38:07.625Z,13.15
2022-11-08T00:40:34.835Z,12.52
2022-11-08T00:43:01.445Z,12.43
2022-11-08T00:45:28.069Z,12.07
2022-11-08T00:47:54.814Z,13.70
2022-11-08T00:50:21.442Z,12.55
2022-11-08T00:52:48.021Z,12.60
2022-11-08T00:55:14.733Z,13.20
2022-11-08T00:57:58.432Z,13.52
2022-11-08T01:00:27.081Z,14.32
2022-11-08T01:03:13.782Z,15.73
2022-11-08T01:05:40.845Z,15.23
2022-11-08T01:08:07.534Z,16.17
2022-11-08T01:10:34.646Z,15.88
2022-11-08T01:13:01.384Z,16.50
2022-11-08T01:15:28.116Z,16.55
2022-11-08T01:17:54.771Z,16.98
2022-11-08T01:20:21.489Z,16.48
2022-11-08T01:22:48.247Z,15.85
2022-11-08T01:25:14.928Z,14.50
2022-11-08T01:27:43.376Z,14.18
2022-11-08T01:30:10.521Z,13.98
2022-11-08T01:32:37.172Z,12.75
2022-11-08T01:35:04.510Z,12.25
2022-11-08T01:37:31.369Z,12.70
2022-11-08T01:39:57.937Z,12.25
2022-11-08T01:42:32.629Z,12.70
2022-11-08T01:45:01.209Z,12.73
2022-11-08T01:47:27.913Z,12.02
2022-11-08T01:49:58.813Z,13.70
2022-11-08T01:52:25.693Z,11.98
2022-11-08T01:54:55.082Z,13.55
2022-11-08T01:57:28.353Z,13.48
2022-11-08T01:59:58.852Z,13.55
2022-11-08T02:02:26.657Z,13.57
2022-11-08T02:04:54.161Z,15.32
2022-11-08T02:07:21.806Z,14.55
2022-11-08T02:09:48.566Z,13.10
2022-11-08T02:12:16.926Z,13.48
2022-11-08T02:14:43.534Z,13.75
2022-11-08T02:17:10.833Z,13.88
2022-11-08T02:19:44.578Z,13.48
2022-11-08T02:22:25.627Z,13.55
2022-11-08T02:24:52.594Z,13.88
2022-11-08T02:27:19.159Z,13.48
2022-11-08T02:29:46.119Z,14.55
2022-11-08T02:32:12.820Z,14.25
2022-11-08T02:34:55.402Z,13.95
2022-11-08T02:37:25.008Z,14.88
2022-11-08T02:39:51.675Z,15.70
2022-11-08T02:42:20.191Z,13.93
2022-11-08T02:44:47.614Z,15.90
2022-11-08T02:47:15.081Z,16.02
2022-11-08T02:49:41.794Z,14.43
2022-11-08T02:52:08.497Z,14.02
2022-11-08T02:54:35.092Z,16.73
2022-11-08T02:57:01.712Z,15.23
2022-11-08T02:59:28.342Z,16.80
2022-11-08T03:01:55.218Z,15.27
2022-11-08T03:04:21.916Z,15.32
2022-11-08T03:06:48.554Z,14.98
2022-11-08T03:09:15.256Z,14.32
2022-11-08T03:11:42.129Z,13.93
2022-11-08T03:14:08.778Z,14.27
2022-11-08T03:16:35.397Z,15.63
2022-11-08T03:19:02.000Z,12.43
2022-11-08T03:21:28.697Z,13.98
2022-11-08T03:23:55.925Z,12.05
2022-11-08T03:26:22.526Z,12.63
2022-11-08T03:28:49.126Z,11.57
2022-11-08T03:31:15.806Z,12.38
2022-11-08T03:33:42.450Z,11.85
2022-11-08T03:36:09.361Z,12.52
2022-11-08T03:38:35.974Z,11.85
2022-11-08T03:41:02.601Z,13.75
2022-11-08T03:43:29.289Z,12.25
2022-11-08T03:45:55.852Z,13.00
2022-11-08T03:48:23.706Z,12.35
2022-11-08T03:50:53.333Z,13.88
2022-11-08T03:53:19.944Z,12.55
2022-11-08T03:55:46.551Z,13.35
2022-11-08T03:58:13.209Z,13.18
2022-11-08T04:00:40.849Z,12.77
2022-11-08T04:03:07.597Z,12.80
2022-11-08T04:05:34.276Z,12.85
2022-11-08T04:08:01.952Z,13.73
2022-11-08T04:10:28.723Z,12.98
2022-11-08T04:13:16.933Z,12.52
2022-11-08T04:15:43.718Z,13.27
2022-11-08T04:18:28.987Z,14.10
2022-11-08T04:21:31.358Z,12.98
2022-11-08T04:23:57.971Z,13.68
2022-11-08T04:26:24.534Z,14.65
2022-11-08T04:28:51.137Z,12.63
2022-11-08T04:31:19.620Z,13.82
2022-11-08T04:33:46.518Z,14.27
2022-11-08T04:36:15.083Z,12.98
2022-11-08T04:38:41.920Z,13.75
2022-11-08T04:41:12.250Z,14.90
2022-11-08T04:43:38.982Z,14.27
2022-11-08T04:46:08.676Z,13.25
2022-11-08T04:48:35.809Z,13.75
2022-11-08T04:51:08.518Z,13.68
2022-11-08T04:53:35.637Z,13.02
2022-11-08T04:56:05.131Z,14.02
2022-11-08T04:58:37.264Z,15.02
2022-11-08T05:01:05.841Z,15.35
2022-11-08T05:03:33.082Z,14.15
2022-11-08T05:06:05.629Z,13.13
2022-11-08T05:08:32.895Z,13.57
2022-11-08T05:11:11.329Z,11.65
2022-11-08T05:13:38.221Z,14.43
2022-11-08T05:16:07.696Z,14.02
2022-11-08T05:18:34.688Z,14.27
2022-11-08T05:21:20.924Z,14.38
2022-11-08T05:23:49.361Z,15.18
2022-11-08T05:26:18.357Z,13.50
2022-11-08T05:28:45.117Z,14.40
2022-11-08T05:31:12.145Z,14.98
2022-11-08T05:33:38.941Z,13.52
2022-11-08T05:36:07.787Z,14.85
2022-11-08T05:38:35.276Z,13.63
2022-11-08T05:41:07.983Z,14.68
2022-11-08T05:43:34.577Z,14.38
2022-11-08T05:46:01.455Z,13.52
2022-11-08T05:48:28.557Z,12.75
2022-11-08T05:50:55.801Z,12.70
2022-11-08T05:53:22.722Z,15.10
2022-11-08T05:55:49.433Z,12.57
2022-11-08T05:58:16.698Z,13.93
2022-11-08T06:00:43.300Z,14.02
2022-11-08T06:03:10.462Z,15.07
2022-11-08T06:05:37.549Z,14.63
2022-11-08T06:08:04.354Z,14.27
2022-11-08T06:10:31.730Z,15.35
2022-11-08T06:13:02.210Z,15.18
2022-11-08T06:15:28.888Z,15.10
2022-11-08T06:17:55.804Z,15.55
2022-11-08T06:20:22.455Z,13.75
2022-11-08T06:22:49.573Z,14.07
2022-11-08T06:25:16.309Z,15.75
2022-11-08T06:27:42.974Z,15.07
2022-11-08T06:30:10.031Z,15.35
2022-11-08T06:32:36.906Z,15.40
2022-11-08T06:35:03.698Z,16.48
2022-11-08T06:37:30.313Z,17.45
2022-11-08T06:39:58.757Z,17.13
2022-11-08T06:42:26.304Z,17.33
2022-11-08T06:44:52.872Z,17.55
2022-11-08T06:47:19.513Z,19.05
2022-11-08T06:49:46.147Z,18.48
2022-11-08T06:52:12.853Z,20.80
2022-11-08T06:54:39.433Z,20.13
2022-11-08T06:57:06.179Z,20.75
2022-11-08T06:59:32.761Z,18.00
2022-11-08T07:01:59.460Z,19.40
2022-11-08T07:04:26.195Z,16.35
2022-11-08T07:06:52.803Z,18.20
2022-11-08T07:09:19.409Z,15.90
2022-11-08T07:11:46.377Z,15.77
2022-11-08T07:14:13.052Z,16.77
2022-11-08T07:16:39.830Z,17.20
2022-11-08T07:19:06.458Z,17.27
2022-11-08T07:21:33.126Z,15.93
2022-11-08T07:23:59.712Z,16.75
2022-11-08T07:26:26.358Z,14.88
2022-11-08T07:28:53.022Z,16.45
2022-11-08T07:31:19.832Z,16.38
2022-11-08T07:33:46.984Z,17.90
2022-11-08T07:36:13.614Z,16.77
2022-11-08T07:38:40.275Z,17.25
2022-11-08T07:41:06.881Z,17.77
2022-11-08T07:43:33.476Z,14.73
2022-11-08T07:46:09.257Z,18.92
2022-11-08T07:48:35.885Z,17.42
2022-11-08T07:51:02.569Z,17.27
2022-11-08T07:53:29.441Z,17.20
2022-11-08T07:55:58.058Z,18.05
2022-11-08T07:58:25.208Z,18.85
2022-11-08T08:00:51.841Z,19.50
2022-11-08T08:03:19.272Z,20.08
2022-11-08T08:05:50.475Z,20.23
2022-11-08T08:08:17.154Z,20.95
2022-11-08T08:10:43.765Z,21.02
2022-11-08T08:13:11.525Z,21.95
2022-11-08T08:15:38.450Z,21.00
2022-11-08T08:18:07.322Z,21.40
2022-11-08T08:20:34.890Z,22.05
2022-11-08T08:23:01.643Z,22.08
2022-11-08T08:25:30.891Z,22.27
2022-11-08T08:27:59.714Z,22.60
2022-11-08T08:30:26.756Z,23.80
2022-11-08T08:33:33.984Z,22.90
2022-11-08T08:35:48.557Z,24.02
2022-11-08T08:38:15.390Z,24.00
2022-11-08T08:40:41.987Z,24.08
2022-11-08T08:43:08.633Z,25.80
2022-11-08T08:45:36.171Z,25.60
2022-11-08T08:48:04.022Z,24.73
2022-11-08T08:50:32.856Z,25.17
2022-11-08T08:53:01.122Z,25.80
2022-11-08T08:55:28.110Z,24.60
2022-11-08T08:57:55.163Z,25.65
2022-11-08T09:03:10.583Z,25.63
2022-11-08T09:05:41.030Z,25.92
2022-11-08T09:08:07.673Z,25.40
2022-11-08T09:10:34.265Z,25.08
2022-11-08T09:13:02.115Z,23.83
2022-11-08T09:15:29.443Z,24.48
2022-11-08T09:17:57.030Z,24.85
2022-11-08T09:20:24.337Z,24.08
2022-11-08T09:22:50.978Z,24.60
2022-11-08T09:25:18.144Z,24.85
2022-11-08T09:27:44.774Z,24.63
2022-11-08T09:30:11.466Z,24.23
2022-11-08T09:33:03.393Z,24.73
2022-11-08T09:35:24.881Z,25.40
2022-11-08T09:37:55.033Z,23.88
2022-11-08T09:40:32.934Z,23.42
2022-11-08T09:43:37.407Z,24.17
2022-11-08T09:46:04.146Z,23.20
2022-11-08T09:48:41.877Z,23.83
2022-11-08T09:51:18.257Z,23.63
2022-11-08T09:53:56.317Z,23.80
2022-11-08T09:56:28.718Z,23.13
2022-11-08T09:59:16.045Z,23.00
2022-11-08T10:01:42.798Z,23.83
2022-11-08T10:04:16.121Z,24.00
2022-11-08T10:07:05.098Z,22.85
2022-11-08T10:09:58.868Z,21.45
2022-11-08T10:12:30.104Z,21.27
2022-11-08T10:15:05.778Z,22.98
2022-11-08T10:17:59.222Z,22.38
2022-11-08T10:20:44.498Z,21.65
2022-11-08T10:23:24.956Z,22.63
2022-11-08T10:25:58.807Z,21.95
2022-11-08T10:28:34.225Z,21.55
2022-11-08T10:31:01.643Z,21.80
2022-11-08T10:33:47.012Z,22.05
2022-11-08T10:39:08.716Z,21.52
2022-11-08T10:41:55.861Z,21.92
2022-11-08T10:44:26.633Z,22.35
2022-11-08T10:46:56.326Z,21.98
2022-11-08T10:49:29.998Z,21.08
2022-11-08T10:52:20.805Z,21.77
2022-11-08T10:54:55.784Z,21.30
2022-11-08T10:59:51.573Z,21.05
2022-11-08T11:02:38.421Z,21.15
2022-11-08T11:05:19.861Z,20.95
2022-11-08T11:08:08.336Z,20.65
2022-11-08T11:10:41.368Z,19.63
2022-11-08T11:13:18.302Z,20.55
2022-11-08T11:16:00.127Z,20.73
2022-11-08T11:18:33.554Z,20.77
2022-11-08T11:21:11.081Z,20.23
2022-11-08T11:23:37.696Z,19.85
2022-11-08T11:26:06.505Z,20.55
2022-11-08T11:28:35.728Z,20.02
2022-11-08T11:31:14.998Z,19.95
2022-11-08T11:33:48.700Z,20.40
2022-11-08T11:36:20.253Z,21.05
2022-11-08T11:39:07.006Z,20.90
2022-11-08T11:41:40.970Z,19.90
2022-11-08T11:44:16.712Z,20.30
2022-11-08T11:46:53.513Z,19.50
2022-11-08T11:49:21.417Z,19.67
2022-11-08T11:51:51.254Z,20.27
2022-11-08T11:54:17.914Z,21.15
2022-11-08T11:56:53.334Z,20.95
2022-11-08T11:59:45.273Z,20.88
2022-11-08T12:02:39.296Z,20.58
2022-11-08T12:05:47.923Z,20.50
2022-11-08T12:08:45.062Z,20.10
2022-11-08T12:11:14.529Z,20.33
2022-11-08T12:14:06.204Z,20.33
2022-11-08T12:16:50.781Z,20.65
2022-11-08T12:19:23.790Z,20.15
2022-11-08T12:21:59.467Z,20.23
2022-11-08T12:24:37.844Z,20.52
2022-11-08T12:27:19.525Z,20.10
2022-11-08T12:30:11.411Z,19.88
2022-11-08T12:32:53.110Z,19.58
2022-11-08T12:35:35.626Z,19.35
2022-11-08T12:38:17.794Z,18.63
2022-11-08T12:40:54.677Z,19.50
2022-11-08T12:43:39.801Z,19.30
2022-11-08T12:46:18.357Z,19.13
2022-11-08T12:49:29.333Z,19.60
2022-11-08T12:52:43.413Z,19.55
2022-11-08T12:55:22.501Z,19.70
2022-11-08T12:57:52.317Z,20.08
2022-11-08T13:00:19.817Z,19.88
2022-11-08T13:03:12.135Z,20.42
2022-11-08T13:05:49.986Z,19.85
2022-11-08T13:08:34.790Z,19.92
2022-11-08T13:11:08.976Z,19.52
2022-11-08T13:13:47.838Z,19.05
2022-11-08T13:16:21.056Z,19.02
2022-11-08T13:18:56.760Z,19.92
2022-11-08T13:21:38.819Z,19.75
2022-11-08T13:24:14.026Z,20.48
2022-11-08T13:26:55.869Z,20.50
2022-11-08T13:29:27.311Z,20.35
2022-11-08T13:32:17.365Z,20.50
2022-11-08T13:34:53.193Z,20.38
2022-11-08T13:37:54.289Z,19.75
2022-11-08T13:40:52.081Z,19.35
2022-11-08T13:43:31.650Z,20.35
2022-11-08T13:46:22.641Z,19.50
2022-11-08T13:48:58.633Z,19.83
2022-11-08T13:51:39.028Z,19.38
2022-11-08T13:54:30.960Z,20.25
2022-11-08T13:56:59.386Z,23.98
2022-11-08T13:59:32.180Z,20.42
2022-11-08T14:02:00.570Z,20.38
2022-11-08T14:04:40.990Z,20.30
2022-11-08T14:07:33.113Z,19.30
2022-11-08T14:10:17.273Z,19.67
2022-11-08T14:12:57.586Z,19.70
2022-11-08T14:15:46.461Z,19.05
2022-11-08T14:18:23.809Z,19.40
2022-11-08T14:20:50.892Z,20.67
2022-11-08T14:23:21.111Z,19.23
2022-11-08T14:26:13.760Z,19.67
2022-11-08T14:28:43.345Z,19.40
2022-11-08T14:31:28.246Z,19.23
2022-11-08T14:33:55.344Z,19.70
2022-11-08T14:36:23.602Z,19.10
2022-11-08T14:39:02.977Z,19.70
2022-11-08T14:41:32.571Z,19.48
2022-11-08T14:44:01.513Z,20.80
2022-11-08T14:46:40.749Z,20.67
2022-11-08T14:49:13.477Z,20.80
2022-11-08T14:51:41.545Z,21.42
2022-11-08T14:54:24.937Z,20.75
2022-11-08T14:56:51.644Z,20.88
2022-11-08T14:59:18.737Z,20.60
2022-11-08T15:01:49.722Z,21.90
2022-11-08T15:04:22.218Z,21.80
2022-11-08T15:06:52.127Z,21.45
2022-11-08T15:09:25.579Z,22.58
2022-11-08T15:11:59.386Z,21.98
2022-11-08T15:14:29.423Z,28.13
2022-11-08T15:17:02.587Z,25.50
2022-11-08T15:19:41.122Z,23.88
2022-11-08T15:22:34.561Z,20.50
2022-11-08T15:25:14.210Z,19.33
2022-11-08T15:27:52.499Z,19.08
2022-11-08T15:30:21.609Z,19.20
2022-11-08T15:32:49.078Z,18.50
2022-11-08T15:35:32.961Z,19.38
2022-11-08T15:38:03.341Z,21.25
2022-11-08T15:40:32.821Z,18.88
2022-11-08T15:43:00.040Z,20.40
2022-11-08T15:45:35.582Z,19.58
2022-11-08T15:48:21.544Z,19.50
2022-11-08T15:50:48.906Z,19.55
2022-11-08T15:53:16.047Z,19.63
2022-11-08T15:56:00.223Z,20.65
2022-11-08T15:58:33.016Z,19.80
2022-11-08T16:01:02.073Z,18.65
2022-11-08T16:03:31.516Z,18.73
2022-11-08T16:05:58.153Z,17.60
2022-11-08T16:08:25.334Z,19.10
2022-11-08T16:11:00.338Z,18.10
2022-11-08T16:13:28.345Z,18.67
2022-11-08T16:15:55.615Z,18.23
2022-11-08T16:18:23.618Z,17.48
2022-11-08T16:20:50.353Z,17.45
2022-11-08T16:23:17.761Z,17.63
2022-11-08T16:25:47.378Z,16.98
2022-11-08T16:28:35.003Z,17.88
2022-11-08T16:31:05.255Z,18.23
2022-11-08T16:33:34.191Z,19.10
2022-11-08T16:36:03.314Z,19.05
2022-11-08T16:38:34.291Z,18.30
2022-11-08T16:41:01.422Z,19.05
2022-11-08T16:43:28.926Z,18.30
2022-11-08T16:46:06.021Z,18.40
2022-11-08T16:48:33.862Z,17.98
2022-11-08T16:51:02.904Z,17.73
2022-11-08T16:53:30.065Z,19.58
2022-11-08T16:55:57.786Z,18.90
2022-11-08T16:58:25.848Z,17.58
2022-11-08T17:00:52.699Z,18.20
2022-11-08T17:03:21.962Z,20.42
2022-11-08T17:05:49.016Z,20.63
2022-11-08T17:08:16.828Z,22.40
2022-11-08T17:10:44.183Z,19.38
2022-11-08T17:13:14.405Z,18.25
2022-11-08T17:15:41.462Z,21.90
2022-11-08T17:18:11.803Z,24.27
2022-11-08T17:20:39.257Z,20.40
2022-11-08T17:23:06.259Z,24.83
2022-11-08T17:25:36.022Z,24.58
2022-11-08T17:28:03.126Z,23.60
2022-11-08T17:30:29.781Z,26.05
2022-11-08T17:32:56.404Z,26.27
2022-11-08T17:35:23.073Z,23.60
2022-11-08T17:37:49.666Z,23.02
2022-11-08T17:40:16.400Z,39.28
2022-11-08T17:42:43.547Z,25.85
2022-11-08T17:45:10.978Z,18.70
2022-11-08T17:47:37.716Z,18.40
2022-11-08T17:50:05.729Z,17.55
2022-11-08T17:52:32.826Z,17.17
2022-11-08T17:54:59.655Z,17.00
2022-11-08T17:57:26.270Z,19.10
2022-11-08T17:59:52.979Z,17.98
2022-11-08T18:02:19.927Z,19.30
2022-11-08T18:04:46.946Z,17.83
2022-11-08T18:07:13.726Z,20.42
2022-11-08T18:09:40.441Z,20.08
2022-11-08T18:12:07.143Z,19.45
2022-11-08T18:14:33.770Z,24.15
2022-11-08T18:17:01.641Z,17.60
2022-11-08T18:19:28.263Z,19.83
2022-11-08T18:21:54.906Z,20.25
2022-11-08T18:24:21.574Z,21.40
2022-11-08T18:26:48.286Z,19.55
2022-11-08T18:29:14.990Z,20.48
2022-11-08T18:31:41.628Z,20.55
2022-11-08T18:34:08.302Z,18.73
2022-11-08T18:36:35.552Z,19.60
2022-11-08T18:39:02.613Z,18.25
2022-11-08T18:41:31.649Z,17.73
2022-11-08T18:44:00.032Z,17.60
2022-11-08T18:46:29.094Z,17.58
2022-11-08T18:48:55.766Z,17.55
2022-11-08T18:51:23.646Z,17.58
2022-11-08T18:53:52.368Z,19.50
2022-11-08T18:56:19.861Z,19.05
2022-11-08T18:58:46.678Z,18.92
2022-11-08T19:01:14.195Z,17.92
2022-11-08T19:03:41.530Z,18.17
2022-11-08T19:06:08.447Z,17.55
2022-11-08T19:08:36.680Z,18.30
2022-11-08T19:11:06.857Z,20.35
2022-11-08T19:13:35.023Z,18.23
2022-11-08T19:16:06.245Z,18.30
2022-11-08T19:18:34.895Z,19.67
2022-11-08T19:21:07.978Z,20.88
2022-11-08T19:23:35.317Z,19.40
2022-11-08T19:26:08.063Z,23.20
2022-11-08T19:28:37.833Z,36.03
2022-11-08T19:31:05.368Z,28.95
2022-11-08T19:33:33.867Z,30.17
2022-11-08T19:36:07.758Z,20.02
2022-11-08T19:38:36.576Z,19.05
2022-11-08T19:41:08.665Z,18.40
2022-11-08T19:43:36.882Z,21.65
2022-11-08T19:46:06.350Z,20.20
2022-11-08T19:48:36.605Z,18.60
2022-11-08T19:51:06.460Z,19.55
2022-11-08T19:53:33.760Z,20.17
2022-11-08T19:56:02.245Z,19.35
2022-11-08T19:58:28.994Z,21.20
2022-11-08T20:00:55.634Z,22.52
2022-11-08T20:03:22.294Z,22.42
2022-11-08T20:05:52.970Z,22.05
2022-11-08T20:08:21.090Z,20.58
2022-11-08T20:10:49.687Z,19.42
2022-11-08T20:13:16.297Z,19.40
2022-11-08T20:15:43.021Z,19.08
2022-11-08T20:18:10.591Z,21.27
2022-11-08T20:20:41.672Z,19.67
2022-11-08T20:23:09.390Z,20.67
2022-11-08T20:25:36.029Z,18.77
2022-11-08T20:28:02.698Z,18.42
2022-11-08T20:30:29.724Z,19.20
2022-11-08T20:32:56.899Z,18.48
2022-11-08T20:35:23.738Z,20.00
2022-11-08T20:37:50.714Z,18.15
2022-11-08T20:40:17.401Z,19.88
2022-11-08T20:42:44.062Z,18.35
2022-11-08T20:45:14.919Z,21.13
2022-11-08T20:47:42.042Z,18.77
2022-11-08T20:50:10.628Z,18.65
2022-11-08T20:52:37.350Z,19.88
2022-11-08T20:55:04.159Z,18.23
2022-11-08T20:57:30.759Z,18.60
2022-11-08T20:59:57.632Z,19.13
2022-11-08T21:02:25.482Z,19.27
2022-11-08T21:04:52.527Z,18.10
2022-11-08T21:08:01.263Z,17.88
2022-11-08T21:10:35.653Z,19.48
2022-11-08T21:12:53.189Z,17.15
2022-11-08T21:15:25.853Z,18.40
2022-11-08T21:17:53.568Z,18.55
2022-11-08T21:20:20.183Z,19.25
2022-11-08T21:22:46.755Z,18.45
2022-11-08T21:25:13.401Z,19.23
2022-11-08T21:27:40.031Z,18.25
2022-11-08T21:30:07.287Z,19.20
2022-11-08T21:32:33.959Z,19.15
2022-11-08T21:35:00.576Z,18.20
2022-11-08T21:37:27.179Z,18.90
2022-11-08T21:39:53.777Z,20.52
2022-11-08T21:42:20.422Z,22.13
2022-11-08T21:44:47.022Z,19.63
2022-11-08T21:47:13.631Z,19.17
2022-11-08T21:49:40.227Z,18.38
2022-11-08T21:52:07.000Z,18.40
2022-11-08T21:54:33.942Z,19.27
2022-11-08T21:57:00.530Z,21.27
2022-11-08T21:59:27.198Z,31.65
2022-11-08T22:01:54.157Z,34.17
2022-11-08T22:04:20.757Z,41.72
2022-11-08T22:06:47.982Z,27.63
2022-11-08T22:09:14.818Z,29.75
2022-11-08T22:11:41.856Z,27.45
2022-11-08T22:14:08.925Z,20.35
2022-11-08T22:16:37.697Z,22.88
2022-11-08T22:19:05.553Z,19.88
2022-11-08T22:21:40.467Z,20.90
2022-11-08T22:24:17.895Z,23.17
2022-11-08T22:26:44.910Z,27.77
2022-11-08T22:29:11.785Z,23.15
2022-11-08T22:31:38.980Z,22.55
2022-11-08T22:34:07.778Z,22.48
2022-11-08T22:36:36.308Z,24.80
2022-11-08T22:39:05.570Z,33.03
2022-11-08T22:41:32.194Z,20.02
2022-11-08T22:43:58.932Z,21.52
2022-11-08T22:46:25.742Z,20.73
2022-11-08T22:48:52.378Z,19.83
2022-11-08T22:51:19.022Z,19.30
2022-11-08T22:53:45.840Z,21.90
2022-11-08T22:56:12.441Z,21.60
2022-11-08T22:58:39.718Z,21.45
2022-11-08T23:01:07.776Z,26.45
2022-11-08T23:03:34.429Z,20.55
2022-11-08T23:06:01.019Z,24.70
2022-11-08T23:08:27.706Z,23.52
2022-11-08T23:11:13.561Z,20.60
2022-11-08T23:13:59.454Z,26.70
2022-11-08T23:16:31.792Z,19.60
2022-11-08T23:19:18.604Z,21.42
2022-11-08T23:22:03.781Z,20.70
2022-11-08T23:24:31.517Z,21.77
2022-11-08T23:27:18.344Z,20.75
2022-11-08T23:30:03.345Z,21.02
2022-11-08T23:32:29.990Z,20.30
2022-11-08T23:34:56.629Z,32.50
2022-11-08T23:37:23.238Z,22.30
2022-11-08T23:40:08.457Z,22.55
2022-11-08T23:42:53.701Z,35.30
2022-11-08T23:45:20.349Z,22.95
2022-11-08T23:47:47.012Z,21.90
2022-11-08T23:50:13.693Z,20.17
2022-11-08T23:52:40.322Z,29.35
2022-11-08T23:55:07.668Z,20.17
2022-11-08T23:57:34.320Z,21.63
